createdAt,value
2022-09-23T00:00:18.293Z,3.9
2022-09-23T00:05:18.311Z,3.8
2022-09-23T00:15:19.894Z,3.6
2022-09-23T00:25:19.276Z,3.5
2022-09-23T00:30:18.385Z,3.5
2022-09-23T00:35:18.669Z,3.4
2022-09-23T00:40:18.632Z,3.4
2022-09-23T00:45:18.319Z,3.3
2022-09-23T00:50:18.767Z,3.3
2022-09-23T00:55:18.366Z,3.3
2022-09-23T01:00:18.504Z,3.3
2022-09-23T01:05:18.526Z,3.2
2022-09-23T01:10:18.615Z,3.1
2022-09-23T01:15:18.473Z,3.1
2022-09-23T01:20:18.300Z,3
2022-09-23T01:25:18.343Z,3
2022-09-23T01:30:18.304Z,2.9
2022-09-23T01:35:18.602Z,2.9
2022-09-23T01:40:18.435Z,2.8
2022-09-23T01:45:18.626Z,2.9
2022-09-23T01:50:18.615Z,2.9
2022-09-23T01:55:18.323Z,2.8
2022-09-23T02:00:18.268Z,2.8
2022-09-23T02:05:18.329Z,2.7
2022-09-23T02:10:18.568Z,2.7
2022-09-23T02:15:18.561Z,2.7
2022-09-23T02:20:18.580Z,2.7
2022-09-23T02:25:18.368Z,2.6
2022-09-23T02:30:18.269Z,2.5
2022-09-23T02:35:18.483Z,2.5
2022-09-23T02:40:19.071Z,2.5
2022-09-23T02:45:18.739Z,2.4
2022-09-23T02:50:18.337Z,2.4
2022-09-23T02:55:18.433Z,2.4
2022-09-23T03:00:18.732Z,2.3
2022-09-23T03:05:18.337Z,2.4
2022-09-23T03:10:18.582Z,2.4
2022-09-23T03:15:18.569Z,2.4
2022-09-23T03:20:18.409Z,2.4
2022-09-23T03:25:18.359Z,2.3
2022-09-23T03:30:18.277Z,2.3
2022-09-23T03:35:19.004Z,2.2
2022-09-23T03:40:18.395Z,2.2
2022-09-23T03:45:18.524Z,2.1
2022-09-23T03:50:19.598Z,2
2022-09-23T03:55:18.852Z,2
2022-09-23T04:00:18.406Z,2.1
2022-09-23T04:05:18.572Z,1.9
2022-09-23T04:10:18.366Z,2
2022-09-23T04:15:18.527Z,1.9
2022-09-23T04:20:18.847Z,1.9
2022-09-23T04:25:18.409Z,1.9
2022-09-23T04:30:18.285Z,1.9
2022-09-23T04:35:18.570Z,1.9
2022-09-23T04:40:18.391Z,1.9
2022-09-23T04:45:18.577Z,1.8
2022-09-23T04:55:18.522Z,1.8
2022-09-23T05:00:18.412Z,1.8
2022-09-23T05:05:18.620Z,1.8
2022-09-23T05:10:18.558Z,1.8
2022-09-23T05:15:18.653Z,1.9
2022-09-23T05:20:18.648Z,1.9
2022-09-23T05:25:18.505Z,2
2022-09-23T05:30:18.427Z,1.9
2022-09-23T05:35:18.690Z,2.1
2022-09-23T05:40:18.654Z,2.1
2022-09-23T05:45:18.735Z,2.2
2022-09-23T05:50:18.684Z,2.3
2022-09-23T05:55:23.686Z,2.4
2022-09-23T06:00:18.385Z,2.5
2022-09-23T06:05:18.374Z,2.8
2022-09-23T06:10:18.350Z,2.8
2022-09-23T06:15:18.616Z,3.1
2022-09-23T06:20:18.609Z,3.3
2022-09-23T06:25:18.751Z,3.4
2022-09-23T06:30:18.405Z,3.4
2022-09-23T06:35:25.886Z,3.6
2022-09-23T06:40:18.513Z,3.8
2022-09-23T06:45:18.355Z,3.9
2022-09-23T06:50:18.416Z,4.2
2022-09-23T06:55:18.417Z,4.4
2022-09-23T07:00:18.407Z,4.6
2022-09-23T07:05:18.381Z,4.9
2022-09-23T07:10:18.400Z,5.1
2022-09-23T07:15:18.450Z,5.6
2022-09-23T07:20:18.418Z,5.9
2022-09-23T07:25:18.432Z,6.1
2022-09-23T07:30:23.118Z,6.4
2022-09-23T07:35:18.733Z,6.8
2022-09-23T07:40:18.493Z,7.3
2022-09-23T07:45:18.439Z,8.1
2022-09-23T07:50:18.799Z,8.8
2022-09-23T07:55:20.934Z,9.3
2022-09-23T08:00:18.393Z,9.8
2022-09-23T08:05:18.404Z,10.3
2022-09-23T08:10:18.416Z,10.4
2022-09-23T08:15:18.447Z,10.6
2022-09-23T08:20:18.478Z,11.1
2022-09-23T08:25:21.192Z,11.8
2022-09-23T08:30:18.381Z,12.3
2022-09-23T08:35:18.430Z,12.4
2022-09-23T08:40:18.435Z,12.9
2022-09-23T08:45:18.425Z,13.3
2022-09-23T08:50:19.253Z,14
2022-09-23T08:55:18.421Z,14.6
2022-09-23T09:00:18.408Z,15.2
2022-09-23T09:05:18.455Z,15.1
2022-09-23T09:10:18.467Z,15.1
2022-09-23T09:15:18.473Z,15
2022-09-23T09:20:18.486Z,15.4
2022-09-23T09:25:18.470Z,16.2
2022-09-23T09:30:18.495Z,16.1
2022-09-23T09:35:18.427Z,16.6
2022-09-23T09:40:18.528Z,16.6
2022-09-23T09:45:21.120Z,16.6
2022-09-23T09:50:18.488Z,16.5
2022-09-23T09:55:18.463Z,16.6
2022-09-23T10:00:18.405Z,16.8
2022-09-23T10:05:18.360Z,16.7
2022-09-23T10:10:31.639Z,17
2022-09-23T10:15:18.413Z,16.8
2022-09-23T10:20:18.468Z,16.6
2022-09-23T10:25:18.924Z,16.6
2022-09-23T10:30:18.381Z,16.6
2022-09-23T10:35:18.413Z,16.9
2022-09-23T10:40:18.702Z,17.3
2022-09-23T10:45:18.397Z,17.1
2022-09-23T10:50:18.586Z,17.1
2022-09-23T10:55:18.426Z,17.3
2022-09-23T11:00:18.379Z,17.1
2022-09-23T11:05:18.410Z,17.3
2022-09-23T11:10:23.557Z,17.9
2022-09-23T11:15:18.456Z,18.4
2022-09-23T11:20:18.413Z,18.6
2022-09-23T11:25:18.481Z,18.1
2022-09-23T11:30:18.342Z,18.6
2022-09-23T11:35:18.403Z,18.7
2022-09-23T11:40:18.611Z,18.9
2022-09-23T11:45:18.397Z,17.9
2022-09-23T11:50:18.502Z,18.6
2022-09-23T11:55:22.488Z,19.4
2022-09-23T12:00:18.437Z,19.4
2022-09-23T12:05:18.611Z,19.6
2022-09-23T12:10:18.487Z,19.4
2022-09-23T12:15:18.436Z,19.4
2022-09-23T12:20:18.495Z,19
2022-09-23T12:25:18.491Z,18.5
2022-09-23T12:30:18.530Z,19.4
2022-09-23T12:35:18.774Z,19.9
2022-09-23T12:40:18.592Z,19.7
2022-09-23T12:45:18.433Z,19.5
2022-09-23T12:50:52.254Z,20.6
2022-09-23T12:55:18.437Z,20.3
2022-09-23T13:00:18.444Z,20.9
2022-09-23T13:05:18.428Z,21.1
2022-09-23T13:10:18.538Z,21.3
2022-09-23T13:15:18.449Z,21.3
2022-09-23T13:20:18.503Z,21.1
2022-09-23T13:25:18.490Z,20.8
2022-09-23T13:30:21.296Z,21.5
2022-09-23T13:35:18.519Z,21.4
2022-09-23T13:40:18.526Z,20.4
2022-09-23T13:45:18.485Z,20.3
2022-09-23T13:50:18.553Z,20.7
2022-09-23T13:55:18.475Z,20.7
2022-09-23T14:00:18.450Z,20.6
2022-09-23T14:05:18.525Z,20.1
2022-09-23T14:10:18.507Z,20.5
2022-09-23T14:15:18.476Z,19.6
2022-09-23T14:20:18.461Z,19.6
2022-09-23T14:25:18.517Z,19.6
2022-09-23T14:30:18.523Z,18.9
2022-09-23T14:35:18.520Z,19.1
2022-09-23T14:40:18.603Z,19.4
2022-09-23T14:45:18.559Z,19.5
2022-09-23T14:50:18.592Z,19.4
2022-09-23T14:55:18.525Z,19.8
2022-09-23T15:00:18.455Z,19.6
2022-09-23T15:05:18.531Z,18.9
2022-09-23T15:10:18.835Z,19
2022-09-23T15:15:18.554Z,18.5
2022-09-23T15:20:18.502Z,18.1
2022-09-23T15:25:18.558Z,17.8
2022-09-23T15:30:18.534Z,17.6
2022-09-23T15:35:19.052Z,17.3
2022-09-23T15:40:18.579Z,17.2
2022-09-23T15:45:18.463Z,17
2022-09-23T15:50:18.600Z,16.9
2022-09-23T15:55:18.539Z,16.9
2022-09-23T16:00:18.713Z,16.8
2022-09-23T16:05:18.534Z,16.5
2022-09-23T16:10:18.637Z,16.4
2022-09-23T16:15:18.535Z,16.2
2022-09-23T16:20:18.555Z,15.9
2022-09-23T16:25:18.520Z,15.7
2022-09-23T16:30:18.624Z,15.4
2022-09-23T16:35:18.601Z,15.1
2022-09-23T16:40:18.642Z,14.7
2022-09-23T16:45:18.540Z,14.4
2022-09-23T16:50:18.649Z,14.1
2022-09-23T16:55:24.381Z,13.9
2022-09-23T17:00:18.664Z,13.6
2022-09-23T17:05:18.651Z,13.4
2022-09-23T17:10:18.573Z,13.1
2022-09-23T17:15:18.665Z,12.8
2022-09-23T17:20:18.569Z,12.7
2022-09-23T17:25:18.569Z,12.5
2022-09-23T17:30:18.684Z,12.3
2022-09-23T17:35:18.583Z,12.1
2022-09-23T17:40:18.633Z,11.8
2022-09-23T17:45:18.615Z,11.7
2022-09-23T17:50:18.599Z,11.6
2022-09-23T17:55:18.626Z,11.4
2022-09-23T18:00:18.559Z,11.3
2022-09-23T18:05:18.576Z,11.3
2022-09-23T18:10:18.599Z,11.1
2022-09-23T18:15:20.130Z,10.9
2022-09-23T18:20:18.603Z,10.9
2022-09-23T18:25:37.955Z,10.7
2022-09-23T18:30:18.597Z,10.6
2022-09-23T18:35:18.689Z,10.4
2022-09-23T18:40:18.694Z,10.3
2022-09-23T18:45:18.545Z,10.3
2022-09-23T18:50:18.742Z,10.2
2022-09-23T18:55:18.610Z,10.2
2022-09-23T19:00:18.548Z,10.1
2022-09-23T19:05:18.658Z,10.2
2022-09-23T19:10:18.621Z,10.1
2022-09-23T19:15:18.580Z,9.9
2022-09-23T19:20:18.887Z,9.8
2022-09-23T19:25:18.624Z,9.8
2022-09-23T19:30:18.686Z,9.8
2022-09-23T19:35:18.640Z,9.8
2022-09-23T19:40:18.694Z,9.7
2022-09-23T19:45:18.626Z,9.6
2022-09-23T19:50:18.708Z,9.5
2022-09-23T19:55:18.659Z,9.4
2022-09-23T20:00:18.707Z,9.4
2022-09-23T20:05:20.415Z,9.4
2022-09-23T20:10:18.661Z,9.4
2022-09-23T20:15:18.612Z,9.4
2022-09-23T20:20:18.635Z,9.4
2022-09-23T20:25:18.618Z,9.4
2022-09-23T20:30:18.654Z,9.3
2022-09-23T20:35:18.653Z,9.3
2022-09-23T20:40:18.637Z,9.2
2022-09-23T20:45:18.587Z,8.9
2022-09-23T20:50:18.623Z,8.9
2022-09-23T20:55:18.641Z,8.9
2022-09-23T21:00:18.573Z,8.9
2022-09-23T21:05:19.850Z,8.8
2022-09-23T21:10:18.663Z,8.8
2022-09-23T21:15:18.639Z,8.8
2022-09-23T21:20:18.655Z,8.8
2022-09-23T21:25:27.812Z,8.7
2022-09-23T21:30:18.672Z,8.6
2022-09-23T21:35:18.613Z,8.6
2022-09-23T21:40:18.740Z,8.6
2022-09-23T21:45:18.798Z,8.6
2022-09-23T21:50:18.910Z,8.7
2022-09-23T21:55:18.620Z,8.7
2022-09-23T22:00:18.821Z,8.6
2022-09-23T22:05:18.635Z,8.6
2022-09-23T22:10:19.007Z,8.7
2022-09-23T22:15:22.831Z,8.7
2022-09-23T22:20:18.691Z,8.7
2022-09-23T22:25:18.947Z,8.8
2022-09-23T22:30:18.670Z,8.7
2022-09-23T22:35:18.727Z,8.5
2022-09-23T22:40:18.737Z,8.4
2022-09-23T22:45:19.778Z,8.5
2022-09-23T22:50:18.643Z,8.6
2022-09-23T22:55:18.824Z,8.7
2022-09-23T23:00:18.699Z,8.8
2022-09-23T23:05:18.899Z,8.8
2022-09-23T23:10:18.753Z,8.8
2022-09-23T23:15:18.866Z,8.6
2022-09-23T23:20:18.673Z,8.6
2022-09-23T23:25:41.389Z,8.4
2022-09-23T23:30:18.684Z,8.4
2022-09-23T23:35:19.230Z,8.4
2022-09-23T23:40:18.776Z,8.3
2022-09-23T23:45:32.018Z,8.4
2022-09-23T23:50:18.743Z,8.3
2022-09-23T23:55:18.703Z,8.4
